sensor_id;sensor_type;location;lat;lon;timestamp;temperature;humidity
16980;DHT22;42288;52.182;21.156;2023-06-05T00:00:38;9.60;94.20
16980;DHT22;42288;52.182;21.156;2023-06-05T00:03:04;9.60;94.20
16980;DHT22;42288;52.182;21.156;2023-06-05T00:05:29;9.50;94.30
16980;DHT22;42288;52.182;21.156;2023-06-05T00:07:57;9.50;94.40
16980;DHT22;42288;52.182;21.156;2023-06-05T00:10:22;9.50;94.40
16980;DHT22;42288;52.182;21.156;2023-06-05T00:12:49;9.50;94.50
16980;DHT22;42288;52.182;21.156;2023-06-05T00:15:15;9.40;94.70
16980;DHT22;42288;52.182;21.156;2023-06-05T00:17:40;9.30;94.80
16980;DHT22;42288;52.182;21.156;2023-06-05T00:20:07;9.30;94.70
16980;DHT22;42288;52.182;21.156;2023-06-05T00:22:35;9.30;94.80
16980;DHT22;42288;52.182;21.156;2023-06-05T00:25:01;9.30;94.70
16980;DHT22;42288;52.182;21.156;2023-06-05T00:27:30;9.20;95.00
16980;DHT22;42288;52.182;21.156;2023-06-05T00:29:56;9.20;94.90
16980;DHT22;42288;52.182;21.156;2023-06-05T00:32:21;9.10;95.30
16980;DHT22;42288;52.182;21.156;2023-06-05T00:34:47;9.10;95.30
16980;DHT22;42288;52.182;21.156;2023-06-05T00:37:15;9.10;95.40
16980;DHT22;42288;52.182;21.156;2023-06-05T00:39:41;9.10;95.50
16980;DHT22;42288;52.182;21.156;2023-06-05T00:42:07;9.00;95.80
16980;DHT22;42288;52.182;21.156;2023-06-05T00:44:34;8.90;95.40
16980;DHT22;42288;52.182;21.156;2023-06-05T00:47:00;8.90;95.50
16980;DHT22;42288;52.182;21.156;2023-06-05T00:49:27;9.00;95.40
16980;DHT22;42288;52.182;21.156;2023-06-05T00:51:52;9.00;95.40
16980;DHT22;42288;52.182;21.156;2023-06-05T00:54:18;8.90;95.50
16980;DHT22;42288;52.182;21.156;2023-06-05T00:56:46;8.80;95.70
16980;DHT22;42288;52.182;21.156;2023-06-05T00:59:12;8.90;95.80
16980;DHT22;42288;52.182;21.156;2023-06-05T01:01:40;8.80;96.10
16980;DHT22;42288;52.182;21.156;2023-06-05T01:04:08;8.80;96.20
16980;DHT22;42288;52.182;21.156;2023-06-05T01:06:34;8.70;96.20
16980;DHT22;42288;52.182;21.156;2023-06-05T01:09:01;8.70;96.30
16980;DHT22;42288;52.182;21.156;2023-06-05T01:14:31;8.50;96.60
16980;DHT22;42288;52.182;21.156;2023-06-05T01:17:00;8.50;96.70
16980;DHT22;42288;52.182;21.156;2023-06-05T01:19:28;8.50;96.60
16980;DHT22;42288;52.182;21.156;2023-06-05T01:21:57;8.40;96.50
16980;DHT22;42288;52.182;21.156;2023-06-05T01:24:23;8.40;96.60
16980;DHT22;42288;52.182;21.156;2023-06-05T01:26:58;8.40;96.80
16980;DHT22;42288;52.182;21.156;2023-06-05T01:29:35;8.40;96.90
16980;DHT22;42288;52.182;21.156;2023-06-05T01:32:06;8.40;96.80
16980;DHT22;42288;52.182;21.156;2023-06-05T01:34:35;8.40;96.70
16980;DHT22;42288;52.182;21.156;2023-06-05T01:37:02;8.30;96.70
16980;DHT22;42288;52.182;21.156;2023-06-05T01:39:29;8.30;96.60
16980;DHT22;42288;52.182;21.156;2023-06-05T01:41:55;8.20;96.70
16980;DHT22;42288;52.182;21.156;2023-06-05T01:44:22;8.20;96.90
16980;DHT22;42288;52.182;21.156;2023-06-05T01:46:49;8.20;97.10
16980;DHT22;42288;52.182;21.156;2023-06-05T01:49:14;8.10;97.00
16980;DHT22;42288;52.182;21.156;2023-06-05T01:51:40;8.10;97.10
16980;DHT22;42288;52.182;21.156;2023-06-05T01:54:06;8.10;97.10
16980;DHT22;42288;52.182;21.156;2023-06-05T01:56:32;8.10;97.30
16980;DHT22;42288;52.182;21.156;2023-06-05T01:58:58;8.10;97.50
16980;DHT22;42288;52.182;21.156;2023-06-05T02:01:23;8.10;97.40
16980;DHT22;42288;52.182;21.156;2023-06-05T02:03:49;8.10;97.30
16980;DHT22;42288;52.182;21.156;2023-06-05T02:06:18;8.00;97.20
16980;DHT22;42288;52.182;21.156;2023-06-05T02:08:44;8.10;97.20
16980;DHT22;42288;52.182;21.156;2023-06-05T02:11:09;8.00;97.50
16980;DHT22;42288;52.182;21.156;2023-06-05T02:13:38;8.00;97.90
16980;DHT22;42288;52.182;21.156;2023-06-05T02:16:04;7.90;97.80
16980;DHT22;42288;52.182;21.156;2023-06-05T02:18:30;8.00;97.90
16980;DHT22;42288;52.182;21.156;2023-06-05T02:20:56;7.90;97.90
16980;DHT22;42288;52.182;21.156;2023-06-05T02:23:22;7.90;98.10
16980;DHT22;42288;52.182;21.156;2023-06-05T02:25:48;8.00;97.70
16980;DHT22;42288;52.182;21.156;2023-06-05T02:28:14;7.90;98.20
16980;DHT22;42288;52.182;21.156;2023-06-05T02:30:41;7.90;98.80
16980;DHT22;42288;52.182;21.156;2023-06-05T02:33:10;8.00;99.10
16980;DHT22;42288;52.182;21.156;2023-06-05T02:35:36;8.00;98.80
16980;DHT22;42288;52.182;21.156;2023-06-05T02:38:02;7.90;98.90
16980;DHT22;42288;52.182;21.156;2023-06-05T02:40:30;8.00;99.00
16980;DHT22;42288;52.182;21.156;2023-06-05T02:42:56;8.00;99.30
16980;DHT22;42288;52.182;21.156;2023-06-05T02:45:22;8.00;99.30
16980;DHT22;42288;52.182;21.156;2023-06-05T02:47:48;8.10;98.70
16980;DHT22;42288;52.182;21.156;2023-06-05T02:50:14;8.10;98.20
16980;DHT22;42288;52.182;21.156;2023-06-05T02:52:39;8.10;98.10
16980;DHT22;42288;52.182;21.156;2023-06-05T02:55:06;8.20;97.90
16980;DHT22;42288;52.182;21.156;2023-06-05T02:57:33;8.20;98.10
16980;DHT22;42288;52.182;21.156;2023-06-05T03:00:07;8.20;98.10
16980;DHT22;42288;52.182;21.156;2023-06-05T03:02:33;8.20;98.10
16980;DHT22;42288;52.182;21.156;2023-06-05T03:05:02;8.30;97.90
16980;DHT22;42288;52.182;21.156;2023-06-05T03:07:28;8.30;97.90
16980;DHT22;42288;52.182;21.156;2023-06-05T03:09:55;8.50;97.90
16980;DHT22;42288;52.182;21.156;2023-06-05T03:12:20;8.60;97.70
16980;DHT22;42288;52.182;21.156;2023-06-05T03:14:46;8.70;97.50
16980;DHT22;42288;52.182;21.156;2023-06-05T03:17:12;8.80;97.30
16980;DHT22;42288;52.182;21.156;2023-06-05T03:19:37;8.80;97.50
16980;DHT22;42288;52.182;21.156;2023-06-05T03:22:03;9.00;97.20
16980;DHT22;42288;52.182;21.156;2023-06-05T03:24:29;9.20;97.10
16980;DHT22;42288;52.182;21.156;2023-06-05T03:26:55;9.30;97.20
16980;DHT22;42288;52.182;21.156;2023-06-05T03:29:20;9.40;97.00
16980;DHT22;42288;52.182;21.156;2023-06-05T03:31:46;9.50;96.80
16980;DHT22;42288;52.182;21.156;2023-06-05T03:34:11;9.60;96.80
16980;DHT22;42288;52.182;21.156;2023-06-05T03:36:37;9.70;96.60
16980;DHT22;42288;52.182;21.156;2023-06-05T03:39:07;9.90;96.60
16980;DHT22;42288;52.182;21.156;2023-06-05T03:41:33;10.00;95.80
16980;DHT22;42288;52.182;21.156;2023-06-05T03:43:58;10.00;95.80
16980;DHT22;42288;52.182;21.156;2023-06-05T03:46:24;10.10;95.70
16980;DHT22;42288;52.182;21.156;2023-06-05T03:48:50;10.40;95.60
16980;DHT22;42288;52.182;21.156;2023-06-05T03:51:18;10.40;95.50
16980;DHT22;42288;52.182;21.156;2023-06-05T03:53:45;10.60;95.50
16980;DHT22;42288;52.182;21.156;2023-06-05T03:56:11;10.70;95.30
16980;DHT22;42288;52.182;21.156;2023-06-05T03:58:41;10.80;95.10
16980;DHT22;42288;52.182;21.156;2023-06-05T04:01:06;11.00;95.00
16980;DHT22;42288;52.182;21.156;2023-06-05T04:03:32;11.10;94.90
16980;DHT22;42288;52.182;21.156;2023-06-05T04:06:03;11.30;94.60
16980;DHT22;42288;52.182;21.156;2023-06-05T04:08:28;11.50;94.50
16980;DHT22;42288;52.182;21.156;2023-06-05T04:10:54;11.70;94.60
16980;DHT22;42288;52.182;21.156;2023-06-05T04:13:20;11.80;94.40
16980;DHT22;42288;52.182;21.156;2023-06-05T04:15:48;12.00;94.30
16980;DHT22;42288;52.182;21.156;2023-06-05T04:18:14;12.00;94.20
16980;DHT22;42288;52.182;21.156;2023-06-05T04:20:40;12.20;93.90
16980;DHT22;42288;52.182;21.156;2023-06-05T04:23:06;12.40;93.80
16980;DHT22;42288;52.182;21.156;2023-06-05T04:25:31;12.50;93.70
16980;DHT22;42288;52.182;21.156;2023-06-05T04:27:57;12.70;94.00
16980;DHT22;42288;52.182;21.156;2023-06-05T04:30:23;12.80;93.60
16980;DHT22;42288;52.182;21.156;2023-06-05T04:32:50;13.00;93.90
16980;DHT22;42288;52.182;21.156;2023-06-05T04:35:20;13.10;93.90
16980;DHT22;42288;52.182;21.156;2023-06-05T04:37:46;13.30;93.70
16980;DHT22;42288;52.182;21.156;2023-06-05T04:40:14;13.40;93.20
16980;DHT22;42288;52.182;21.156;2023-06-05T04:42:40;13.50;93.20
16980;DHT22;42288;52.182;21.156;2023-06-05T04:45:07;13.70;93.30
16980;DHT22;42288;52.182;21.156;2023-06-05T04:47:33;13.80;92.80
16980;DHT22;42288;52.182;21.156;2023-06-05T04:50:03;14.00;92.20
16980;DHT22;42288;52.182;21.156;2023-06-05T04:52:33;14.10;91.80
16980;DHT22;42288;52.182;21.156;2023-06-05T04:55:01;14.30;91.40
16980;DHT22;42288;52.182;21.156;2023-06-05T04:57:27;14.40;91.90
16980;DHT22;42288;52.182;21.156;2023-06-05T04:59:53;14.60;90.90
16980;DHT22;42288;52.182;21.156;2023-06-05T05:02:19;14.70;91.30
16980;DHT22;42288;52.182;21.156;2023-06-05T05:04:45;14.80;91.20
16980;DHT22;42288;52.182;21.156;2023-06-05T05:07:11;14.90;91.30
16980;DHT22;42288;52.182;21.156;2023-06-05T05:09:41;15.00;90.70
16980;DHT22;42288;52.182;21.156;2023-06-05T05:12:07;15.20;87.70
16980;DHT22;42288;52.182;21.156;2023-06-05T05:14:33;15.40;88.20
16980;DHT22;42288;52.182;21.156;2023-06-05T05:16:59;15.50;87.80
16980;DHT22;42288;52.182;21.156;2023-06-05T05:19:27;15.70;86.80
16980;DHT22;42288;52.182;21.156;2023-06-05T05:21:52;15.90;85.00
16980;DHT22;42288;52.182;21.156;2023-06-05T05:24:18;16.10;84.30
16980;DHT22;42288;52.182;21.156;2023-06-05T05:26:43;16.20;84.10
16980;DHT22;42288;52.182;21.156;2023-06-05T05:29:09;16.40;83.80
16980;DHT22;42288;52.182;21.156;2023-06-05T05:31:35;16.50;82.80
16980;DHT22;42288;52.182;21.156;2023-06-05T05:34:00;16.50;83.10
16980;DHT22;42288;52.182;21.156;2023-06-05T05:36:27;16.70;83.10
16980;DHT22;42288;52.182;21.156;2023-06-05T05:38:53;16.90;79.50
16980;DHT22;42288;52.182;21.156;2023-06-05T05:41:19;17.10;78.00
16980;DHT22;42288;52.182;21.156;2023-06-05T05:43:44;17.20;77.10
16980;DHT22;42288;52.182;21.156;2023-06-05T05:46:10;17.20;75.80
16980;DHT22;42288;52.182;21.156;2023-06-05T05:48:36;17.40;76.90
16980;DHT22;42288;52.182;21.156;2023-06-05T05:51:02;17.60;76.00
16980;DHT22;42288;52.182;21.156;2023-06-05T05:53:28;17.80;75.20
16980;DHT22;42288;52.182;21.156;2023-06-05T05:55:53;17.90;73.90
16980;DHT22;42288;52.182;21.156;2023-06-05T05:58:19;18.00;74.90
16980;DHT22;42288;52.182;21.156;2023-06-05T06:00:45;18.20;73.80
16980;DHT22;42288;52.182;21.156;2023-06-05T06:03:12;18.20;69.40
16980;DHT22;42288;52.182;21.156;2023-06-05T06:05:39;18.30;72.60
16980;DHT22;42288;52.182;21.156;2023-06-05T06:08:05;18.40;69.40
16980;DHT22;42288;52.182;21.156;2023-06-05T06:10:31;18.30;66.90
16980;DHT22;42288;52.182;21.156;2023-06-05T06:12:57;18.40;67.10
16980;DHT22;42288;52.182;21.156;2023-06-05T06:15:22;18.50;67.00
16980;DHT22;42288;52.182;21.156;2023-06-05T06:17:48;18.60;66.20
16980;DHT22;42288;52.182;21.156;2023-06-05T06:20:14;18.80;67.10
16980;DHT22;42288;52.182;21.156;2023-06-05T06:22:41;18.90;65.50
16980;DHT22;42288;52.182;21.156;2023-06-05T06:25:09;19.00;66.20
16980;DHT22;42288;52.182;21.156;2023-06-05T06:27:36;19.20;66.70
16980;DHT22;42288;52.182;21.156;2023-06-05T06:30:03;19.10;65.30
16980;DHT22;42288;52.182;21.156;2023-06-05T06:32:29;19.20;65.40
16980;DHT22;42288;52.182;21.156;2023-06-05T06:34:55;19.30;65.10
16980;DHT22;42288;52.182;21.156;2023-06-05T06:37:21;19.40;64.20
16980;DHT22;42288;52.182;21.156;2023-06-05T06:39:48;19.50;64.60
16980;DHT22;42288;52.182;21.156;2023-06-05T06:42:14;19.60;62.50
16980;DHT22;42288;52.182;21.156;2023-06-05T06:44:40;19.70;64.60
16980;DHT22;42288;52.182;21.156;2023-06-05T06:47:06;19.80;62.10
16980;DHT22;42288;52.182;21.156;2023-06-05T06:49:33;19.90;61.10
16980;DHT22;42288;52.182;21.156;2023-06-05T06:51:59;20.00;62.00
16980;DHT22;42288;52.182;21.156;2023-06-05T06:54:25;20.30;61.70
16980;DHT22;42288;52.182;21.156;2023-06-05T06:56:56;20.40;62.20
16980;DHT22;42288;52.182;21.156;2023-06-05T06:59:22;20.40;59.70
16980;DHT22;42288;52.182;21.156;2023-06-05T07:02:11;20.60;59.60
16980;DHT22;42288;52.182;21.156;2023-06-05T07:04:37;20.80;59.90
16980;DHT22;42288;52.182;21.156;2023-06-05T07:07:04;20.90;59.40
16980;DHT22;42288;52.182;21.156;2023-06-05T07:09:30;20.70;58.20
16980;DHT22;42288;52.182;21.156;2023-06-05T07:11:55;20.80;58.80
16980;DHT22;42288;52.182;21.156;2023-06-05T07:14:22;21.00;59.60
16980;DHT22;42288;52.182;21.156;2023-06-05T07:16:47;21.00;57.90
16980;DHT22;42288;52.182;21.156;2023-06-05T07:19:15;21.10;59.10
16980;DHT22;42288;52.182;21.156;2023-06-05T07:21:41;21.10;57.80
16980;DHT22;42288;52.182;21.156;2023-06-05T07:24:06;21.20;58.50
16980;DHT22;42288;52.182;21.156;2023-06-05T07:26:33;21.20;55.10
16980;DHT22;42288;52.182;21.156;2023-06-05T07:28:59;21.30;56.50
16980;DHT22;42288;52.182;21.156;2023-06-05T07:31:25;21.40;56.70
16980;DHT22;42288;52.182;21.156;2023-06-05T07:33:51;21.50;54.70
16980;DHT22;42288;52.182;21.156;2023-06-05T07:36:17;21.50;55.30
16980;DHT22;42288;52.182;21.156;2023-06-05T07:38:44;21.40;54.20
16980;DHT22;42288;52.182;21.156;2023-06-05T07:41:11;21.50;54.90
16980;DHT22;42288;52.182;21.156;2023-06-05T07:43:39;21.70;55.10
16980;DHT22;42288;52.182;21.156;2023-06-05T07:46:06;21.70;54.80
16980;DHT22;42288;52.182;21.156;2023-06-05T07:48:34;21.70;54.10
16980;DHT22;42288;52.182;21.156;2023-06-05T07:51:00;21.90;54.50
16980;DHT22;42288;52.182;21.156;2023-06-05T07:53:26;21.80;53.50
16980;DHT22;42288;52.182;21.156;2023-06-05T07:55:51;21.90;53.90
16980;DHT22;42288;52.182;21.156;2023-06-05T07:58:18;21.90;53.00
16980;DHT22;42288;52.182;21.156;2023-06-05T08:00:43;21.90;52.70
16980;DHT22;42288;52.182;21.156;2023-06-05T08:03:16;22.00;52.40
16980;DHT22;42288;52.182;21.156;2023-06-05T08:05:51;22.10;53.70
16980;DHT22;42288;52.182;21.156;2023-06-05T08:08:17;22.30;54.80
16980;DHT22;42288;52.182;21.156;2023-06-05T08:10:43;22.20;53.50
16980;DHT22;42288;52.182;21.156;2023-06-05T08:13:09;22.40;53.60
16980;DHT22;42288;52.182;21.156;2023-06-05T08:15:35;22.60;53.40
16980;DHT22;42288;52.182;21.156;2023-06-05T08:18:01;22.50;52.40
16980;DHT22;42288;52.182;21.156;2023-06-05T08:20:27;22.40;51.50
16980;DHT22;42288;52.182;21.156;2023-06-05T08:22:54;22.40;51.00
16980;DHT22;42288;52.182;21.156;2023-06-05T08:25:23;22.50;54.20
16980;DHT22;42288;52.182;21.156;2023-06-05T08:27:49;22.70;52.40
16980;DHT22;42288;52.182;21.156;2023-06-05T08:30:15;22.80;51.80
16980;DHT22;42288;52.182;21.156;2023-06-05T08:32:41;22.80;51.80
16980;DHT22;42288;52.182;21.156;2023-06-05T08:35:07;22.80;52.20
16980;DHT22;42288;52.182;21.156;2023-06-05T08:37:32;22.80;53.60
16980;DHT22;42288;52.182;21.156;2023-06-05T08:39:58;22.90;50.70
16980;DHT22;42288;52.182;21.156;2023-06-05T08:42:26;22.90;51.20
16980;DHT22;42288;52.182;21.156;2023-06-05T08:44:54;23.00;51.00
16980;DHT22;42288;52.182;21.156;2023-06-05T08:47:22;22.90;50.20
16980;DHT22;42288;52.182;21.156;2023-06-05T08:49:52;22.80;51.20
16980;DHT22;42288;52.182;21.156;2023-06-05T08:52:21;22.70;50.00
16980;DHT22;42288;52.182;21.156;2023-06-05T08:54:47;22.90;51.40
16980;DHT22;42288;52.182;21.156;2023-06-05T08:57:13;23.00;51.40
16980;DHT22;42288;52.182;21.156;2023-06-05T08:59:40;23.00;50.50
16980;DHT22;42288;52.182;21.156;2023-06-05T09:02:05;23.10;50.80
16980;DHT22;42288;52.182;21.156;2023-06-05T09:04:31;23.30;50.40
16980;DHT22;42288;52.182;21.156;2023-06-05T09:06:58;23.30;51.20
16980;DHT22;42288;52.182;21.156;2023-06-05T09:09:24;23.30;49.90
16980;DHT22;42288;52.182;21.156;2023-06-05T09:12:07;23.40;50.90
16980;DHT22;42288;52.182;21.156;2023-06-05T09:14:34;23.50;50.60
16980;DHT22;42288;52.182;21.156;2023-06-05T09:17:01;23.60;49.50
16980;DHT22;42288;52.182;21.156;2023-06-05T09:19:38;23.70;50.50
16980;DHT22;42288;52.182;21.156;2023-06-05T09:22:05;23.80;50.60
16980;DHT22;42288;52.182;21.156;2023-06-05T09:24:32;23.80;50.90
16980;DHT22;42288;52.182;21.156;2023-06-05T09:27:01;23.80;50.00
16980;DHT22;42288;52.182;21.156;2023-06-05T09:29:37;23.80;49.80
16980;DHT22;42288;52.182;21.156;2023-06-05T09:32:08;23.80;49.50
16980;DHT22;42288;52.182;21.156;2023-06-05T09:37:02;23.60;48.50
16980;DHT22;42288;52.182;21.156;2023-06-05T09:39:32;23.60;48.50
16980;DHT22;42288;52.182;21.156;2023-06-05T09:41:59;23.70;48.80
16980;DHT22;42288;52.182;21.156;2023-06-05T09:44:26;23.70;50.00
16980;DHT22;42288;52.182;21.156;2023-06-05T09:46:57;24.00;48.20
16980;DHT22;42288;52.182;21.156;2023-06-05T09:49:45;24.00;47.60
16980;DHT22;42288;52.182;21.156;2023-06-05T09:52:12;24.20;48.70
16980;DHT22;42288;52.182;21.156;2023-06-05T09:54:40;24.30;46.70
16980;DHT22;42288;52.182;21.156;2023-06-05T09:57:08;24.10;45.80
16980;DHT22;42288;52.182;21.156;2023-06-05T09:59:57;24.00;47.00
16980;DHT22;42288;52.182;21.156;2023-06-05T10:02:32;24.20;47.20
16980;DHT22;42288;52.182;21.156;2023-06-05T10:04:59;24.30;46.10
16980;DHT22;42288;52.182;21.156;2023-06-05T10:07:25;24.40;47.00
16980;DHT22;42288;52.182;21.156;2023-06-05T10:09:52;24.60;47.00
16980;DHT22;42288;52.182;21.156;2023-06-05T10:12:19;24.60;47.10
16980;DHT22;42288;52.182;21.156;2023-06-05T10:14:45;24.80;49.10
16980;DHT22;42288;52.182;21.156;2023-06-05T10:17:12;24.80;46.10
16980;DHT22;42288;52.182;21.156;2023-06-05T10:19:42;24.80;46.00
16980;DHT22;42288;52.182;21.156;2023-06-05T10:22:12;25.00;46.40
16980;DHT22;42288;52.182;21.156;2023-06-05T10:24:47;25.00;46.70
16980;DHT22;42288;52.182;21.156;2023-06-05T10:29:55;25.20;44.70
16980;DHT22;42288;52.182;21.156;2023-06-05T10:37:56;26.10;42.50
16980;DHT22;42288;52.182;21.156;2023-06-05T10:40:26;25.50;41.00
16980;DHT22;42288;52.182;21.156;2023-06-05T10:42:52;25.20;41.20
16980;DHT22;42288;52.182;21.156;2023-06-05T10:45:30;25.50;41.80
16980;DHT22;42288;52.182;21.156;2023-06-05T10:47:57;25.70;41.60
16980;DHT22;42288;52.182;21.156;2023-06-05T10:50:23;26.30;41.40
16980;DHT22;42288;52.182;21.156;2023-06-05T10:52:54;27.30;41.00
16980;DHT22;42288;52.182;21.156;2023-06-05T10:55:21;28.30;40.00
16980;DHT22;42288;52.182;21.156;2023-06-05T10:58:07;29.70;39.00
16980;DHT22;42288;52.182;21.156;2023-06-05T11:00:34;29.90;36.90
16980;DHT22;42288;52.182;21.156;2023-06-05T11:03:00;30.70;36.40
16980;DHT22;42288;52.182;21.156;2023-06-05T11:05:27;31.40;35.10
16980;DHT22;42288;52.182;21.156;2023-06-05T11:08:16;32.20;35.20
16980;DHT22;42288;52.182;21.156;2023-06-05T11:11:05;32.60;34.80
16980;DHT22;42288;52.182;21.156;2023-06-05T11:18:52;33.90;31.90
16980;DHT22;42288;52.182;21.156;2023-06-05T11:21:19;34.30;31.20
16980;DHT22;42288;52.182;21.156;2023-06-05T11:24:14;34.80;32.80
16980;DHT22;42288;52.182;21.156;2023-06-05T11:26:41;35.20;29.40
16980;DHT22;42288;52.182;21.156;2023-06-05T11:29:15;35.80;30.90
16980;DHT22;42288;52.182;21.156;2023-06-05T11:31:42;35.60;30.10
16980;DHT22;42288;52.182;21.156;2023-06-05T11:34:12;36.20;30.00
16980;DHT22;42288;52.182;21.156;2023-06-05T11:36:38;36.00;28.20
16980;DHT22;42288;52.182;21.156;2023-06-05T11:39:05;36.90;28.10
16980;DHT22;42288;52.182;21.156;2023-06-05T11:41:31;37.10;27.10
16980;DHT22;42288;52.182;21.156;2023-06-05T11:43:56;36.60;27.20
16980;DHT22;42288;52.182;21.156;2023-06-05T11:46:38;36.40;26.30
16980;DHT22;42288;52.182;21.156;2023-06-05T11:49:05;35.80;27.60
16980;DHT22;42288;52.182;21.156;2023-06-05T11:51:34;34.90;27.90
16980;DHT22;42288;52.182;21.156;2023-06-05T11:54:00;34.20;28.40
16980;DHT22;42288;52.182;21.156;2023-06-05T11:56:27;33.80;29.50
16980;DHT22;42288;52.182;21.156;2023-06-05T11:58:54;33.50;29.10
16980;DHT22;42288;52.182;21.156;2023-06-05T12:01:20;32.90;29.70
16980;DHT22;42288;52.182;21.156;2023-06-05T12:04:07;32.80;29.70
16980;DHT22;42288;52.182;21.156;2023-06-05T12:06:39;31.90;29.60
16980;DHT22;42288;52.182;21.156;2023-06-05T12:09:10;31.50;31.20
16980;DHT22;42288;52.182;21.156;2023-06-05T12:11:37;31.30;31.10
16980;DHT22;42288;52.182;21.156;2023-06-05T12:14:09;31.00;31.60
16980;DHT22;42288;52.182;21.156;2023-06-05T12:16:37;31.20;31.60
16980;DHT22;42288;52.182;21.156;2023-06-05T12:19:14;31.00;31.40
16980;DHT22;42288;52.182;21.156;2023-06-05T12:21:41;30.50;31.30
16980;DHT22;42288;52.182;21.156;2023-06-05T12:24:06;29.80;32.90
16980;DHT22;42288;52.182;21.156;2023-06-05T12:31:50;29.30;34.30
16980;DHT22;42288;52.182;21.156;2023-06-05T12:34:16;28.80;34.50
16980;DHT22;42288;52.182;21.156;2023-06-05T12:36:43;28.90;34.70
16980;DHT22;42288;52.182;21.156;2023-06-05T12:39:10;28.70;34.70
16980;DHT22;42288;52.182;21.156;2023-06-05T12:41:36;28.30;34.60
16980;DHT22;42288;52.182;21.156;2023-06-05T12:44:03;28.10;35.00
16980;DHT22;42288;52.182;21.156;2023-06-05T12:46:33;27.90;35.10
16980;DHT22;42288;52.182;21.156;2023-06-05T12:48:59;27.80;36.00
16980;DHT22;42288;52.182;21.156;2023-06-05T12:51:26;27.90;35.50
16980;DHT22;42288;52.182;21.156;2023-06-05T12:53:53;27.80;34.80
16980;DHT22;42288;52.182;21.156;2023-06-05T12:56:19;27.50;35.50
16980;DHT22;42288;52.182;21.156;2023-06-05T12:58:58;27.30;35.80
16980;DHT22;42288;52.182;21.156;2023-06-05T13:01:25;26.90;36.00
16980;DHT22;42288;52.182;21.156;2023-06-05T13:03:51;26.80;36.70
16980;DHT22;42288;52.182;21.156;2023-06-05T13:06:18;26.70;37.20
16980;DHT22;42288;52.182;21.156;2023-06-05T13:08:44;26.60;37.20
16980;DHT22;42288;52.182;21.156;2023-06-05T13:11:12;26.50;36.50
16980;DHT22;42288;52.182;21.156;2023-06-05T13:13:38;26.50;35.70
16980;DHT22;42288;52.182;21.156;2023-06-05T13:16:04;26.70;37.40
16980;DHT22;42288;52.182;21.156;2023-06-05T13:18:34;26.80;36.90
16980;DHT22;42288;52.182;21.156;2023-06-05T13:21:04;27.00;36.90
16980;DHT22;42288;52.182;21.156;2023-06-05T13:23:30;26.90;36.40
16980;DHT22;42288;52.182;21.156;2023-06-05T13:25:56;27.00;36.60
16980;DHT22;42288;52.182;21.156;2023-06-05T13:28:21;26.90;35.80
16980;DHT22;42288;52.182;21.156;2023-06-05T13:30:47;26.90;36.60
16980;DHT22;42288;52.182;21.156;2023-06-05T13:33:13;26.80;36.90
16980;DHT22;42288;52.182;21.156;2023-06-05T13:35:39;26.50;36.40
16980;DHT22;42288;52.182;21.156;2023-06-05T13:38:05;26.40;36.30
16980;DHT22;42288;52.182;21.156;2023-06-05T13:40:31;26.50;36.80
16980;DHT22;42288;52.182;21.156;2023-06-05T13:42:58;26.50;37.30
16980;DHT22;42288;52.182;21.156;2023-06-05T13:45:24;26.40;36.20
16980;DHT22;42288;52.182;21.156;2023-06-05T13:47:49;26.60;37.30
16980;DHT22;42288;52.182;21.156;2023-06-05T13:50:15;26.60;37.60
16980;DHT22;42288;52.182;21.156;2023-06-05T13:52:41;26.90;37.00
16980;DHT22;42288;52.182;21.156;2023-06-05T13:55:07;27.00;37.50
16980;DHT22;42288;52.182;21.156;2023-06-05T13:57:32;27.10;36.60
16980;DHT22;42288;52.182;21.156;2023-06-05T13:59:58;27.30;36.70
16980;DHT22;42288;52.182;21.156;2023-06-05T14:02:23;27.80;35.60
16980;DHT22;42288;52.182;21.156;2023-06-05T14:04:49;27.80;35.90
16980;DHT22;42288;52.182;21.156;2023-06-05T14:07:15;27.50;35.80
16980;DHT22;42288;52.182;21.156;2023-06-05T14:09:41;27.40;36.60
16980;DHT22;42288;52.182;21.156;2023-06-05T14:12:07;27.30;36.10
16980;DHT22;42288;52.182;21.156;2023-06-05T14:14:35;27.20;36.50
16980;DHT22;42288;52.182;21.156;2023-06-05T14:17:01;27.00;36.40
16980;DHT22;42288;52.182;21.156;2023-06-05T14:19:26;26.80;36.40
16980;DHT22;42288;52.182;21.156;2023-06-05T14:21:52;26.80;37.20
16980;DHT22;42288;52.182;21.156;2023-06-05T14:24:18;26.50;36.50
16980;DHT22;42288;52.182;21.156;2023-06-05T14:26:45;26.50;36.70
16980;DHT22;42288;52.182;21.156;2023-06-05T14:29:11;26.30;36.70
16980;DHT22;42288;52.182;21.156;2023-06-05T14:31:36;26.10;36.60
16980;DHT22;42288;52.182;21.156;2023-06-05T14:34:03;25.90;37.00
16980;DHT22;42288;52.182;21.156;2023-06-05T14:36:28;26.00;38.00
16980;DHT22;42288;52.182;21.156;2023-06-05T14:38:54;25.90;38.20
16980;DHT22;42288;52.182;21.156;2023-06-05T14:41:19;25.70;37.90
16980;DHT22;42288;52.182;21.156;2023-06-05T14:43:46;25.50;37.80
16980;DHT22;42288;52.182;21.156;2023-06-05T14:46:11;25.40;38.00
16980;DHT22;42288;52.182;21.156;2023-06-05T14:48:37;25.40;37.90
16980;DHT22;42288;52.182;21.156;2023-06-05T14:51:03;25.30;38.60
16980;DHT22;42288;52.182;21.156;2023-06-05T14:53:29;25.20;38.60
16980;DHT22;42288;52.182;21.156;2023-06-05T14:55:57;25.30;38.20
16980;DHT22;42288;52.182;21.156;2023-06-05T14:58:23;25.10;38.40
16980;DHT22;42288;52.182;21.156;2023-06-05T15:00:48;25.10;38.80
16980;DHT22;42288;52.182;21.156;2023-06-05T15:03:14;25.10;39.10
16980;DHT22;42288;52.182;21.156;2023-06-05T15:05:39;24.90;39.20
16980;DHT22;42288;52.182;21.156;2023-06-05T15:08:05;25.00;39.20
16980;DHT22;42288;52.182;21.156;2023-06-05T15:10:31;24.80;39.00
16980;DHT22;42288;52.182;21.156;2023-06-05T15:12:57;24.80;39.20
16980;DHT22;42288;52.182;21.156;2023-06-05T15:15:25;24.80;39.00
16980;DHT22;42288;52.182;21.156;2023-06-05T15:17:51;24.80;39.30
16980;DHT22;42288;52.182;21.156;2023-06-05T15:20:20;24.70;39.20
16980;DHT22;42288;52.182;21.156;2023-06-05T15:22:46;24.60;39.70
16980;DHT22;42288;52.182;21.156;2023-06-05T15:25:12;24.70;39.20
16980;DHT22;42288;52.182;21.156;2023-06-05T15:27:38;24.60;39.00
16980;DHT22;42288;52.182;21.156;2023-06-05T15:30:05;24.50;40.00
16980;DHT22;42288;52.182;21.156;2023-06-05T15:32:30;24.60;40.40
16980;DHT22;42288;52.182;21.156;2023-06-05T15:34:56;24.70;40.10
16980;DHT22;42288;52.182;21.156;2023-06-05T15:37:23;25.00;41.20
16980;DHT22;42288;52.182;21.156;2023-06-05T15:39:48;25.30;40.30
16980;DHT22;42288;52.182;21.156;2023-06-05T15:42:26;26.40;39.30
16980;DHT22;42288;52.182;21.156;2023-06-05T15:44:52;26.80;37.40